createdAt,value
2018-04-28T00:01:06.425Z,62.30
2018-04-28T00:03:35.073Z,62.40
2018-04-28T00:06:04.382Z,62.40
2018-04-28T00:08:39.462Z,62.40
2018-04-28T00:11:08.013Z,62.40
2018-04-28T00:13:36.593Z,62.50
2018-04-28T00:16:15.305Z,62.60
2018-04-28T00:21:51.932Z,62.50
2018-04-28T00:24:29.658Z,62.90
2018-04-28T00:27:07.941Z,62.80
2018-04-28T00:29:36.592Z,63.00
2018-04-28T00:32:08.998Z,62.90
2018-04-28T00:37:47.080Z,63.00
2018-04-28T00:43:19.986Z,63.30
2018-04-28T00:46:03.425Z,63.70
2018-04-28T00:51:36.824Z,63.40
2018-04-28T00:54:16.247Z,63.40
2018-04-28T00:56:52.585Z,63.50
2018-04-28T00:59:23.084Z,63.40
2018-04-28T01:01:54.088Z,63.40
2018-04-28T01:04:43.321Z,63.40
2018-04-28T01:07:27.697Z,63.70
2018-04-28T01:10:07.230Z,63.50
2018-04-28T01:12:39.473Z,63.70
2018-04-28T01:15:15.159Z,63.70
2018-04-28T01:17:48.330Z,63.70
2018-04-28T01:23:23.997Z,63.80
2018-04-28T01:25:52.612Z,63.70
2018-04-28T01:31:27.926Z,63.70
2018-04-28T01:37:34.809Z,64.00
2018-04-28T01:43:24.288Z,64.10
2018-04-28T01:46:01.763Z,64.30
2018-04-28T01:48:42.022Z,64.40
2018-04-28T01:51:17.143Z,64.20
2018-04-28T01:57:06.329Z,64.00
2018-04-28T01:59:58.774Z,65.00
2018-04-28T02:02:35.210Z,64.80
2018-04-28T02:08:04.294Z,65.70
2018-04-28T02:13:46.165Z,65.00
2018-04-28T02:16:23.470Z,65.00
2018-04-28T02:19:03.638Z,65.10
2018-04-28T02:21:44.850Z,65.80
2018-04-28T02:27:29.344Z,66.50
2018-04-28T02:30:08.423Z,65.40
2018-04-28T02:32:39.889Z,65.40
2018-04-28T02:35:22.434Z,65.30
2018-04-28T02:41:20.378Z,65.20
2018-04-28T02:43:59.727Z,65.30
2018-04-28T02:46:39.154Z,65.50
2018-04-28T02:49:12.635Z,65.30
2018-04-28T02:58:39.566Z,65.80
2018-04-28T03:01:25.975Z,66.10
2018-04-28T03:03:58.297Z,66.30
2018-04-28T03:09:30.441Z,66.00
2018-04-28T03:12:07.002Z,66.30
2018-04-28T03:14:47.969Z,66.30
2018-04-28T03:20:18.631Z,66.40
2018-04-28T03:23:00.734Z,66.40
2018-04-28T03:25:51.105Z,66.50
2018-04-28T03:28:32.150Z,66.70
2018-04-28T03:31:07.270Z,66.70
2018-04-28T03:36:40.362Z,67.20
2018-04-28T03:42:10.122Z,67.00
2018-04-28T03:44:51.542Z,67.10
2018-04-28T03:47:41.040Z,67.90
2018-04-28T03:50:16.997Z,67.90
2018-04-28T03:52:52.574Z,67.30
2018-04-28T03:55:25.744Z,67.60
2018-04-28T03:58:12.192Z,67.60
2018-04-28T04:00:58.699Z,67.90
2018-04-28T04:03:27.242Z,68.00
2018-04-28T04:06:16.232Z,68.30
2018-04-28T04:08:56.872Z,68.30
2018-04-28T04:18:11.300Z,68.80
2018-04-28T04:20:59.038Z,69.00
2018-04-28T04:23:40.561Z,69.00
2018-04-28T04:29:27.320Z,68.90
2018-04-28T04:32:08.324Z,69.00
2018-04-28T04:37:56.200Z,69.00
2018-04-28T04:44:21.177Z,69.50
2018-04-28T04:50:07.581Z,68.90
2018-04-28T04:52:46.737Z,68.80
2018-04-28T05:01:31.622Z,68.90
2018-04-28T05:04:06.784Z,69.60
2018-04-28T05:06:49.194Z,69.40
2018-04-28T05:09:42.233Z,69.50
2018-04-28T05:12:26.887Z,69.50
2018-04-28T05:18:19.657Z,69.90
2018-04-28T05:21:00.198Z,69.80
2018-04-28T05:26:53.773Z,69.60
2018-04-28T05:32:47.674Z,69.30
2018-04-28T05:39:02.382Z,68.80
2018-04-28T05:41:44.449Z,68.90
2018-04-28T05:47:51.795Z,68.70
2018-04-28T05:50:38.233Z,69.00
2018-04-28T05:56:35.919Z,68.80
2018-04-28T06:02:39.459Z,68.50
2018-04-28T06:11:33.157Z,68.00
2018-04-28T06:14:14.357Z,67.90
2018-04-28T06:20:21.835Z,67.70
2018-04-28T06:22:50.349Z,67.70
2018-04-28T06:25:19.647Z,67.30
2018-04-28T06:27:48.920Z,66.70
2018-04-28T06:30:17.433Z,66.70
2018-04-28T06:32:45.945Z,66.90
2018-04-28T06:35:14.446Z,67.20
2018-04-28T06:37:42.954Z,66.20
2018-04-28T06:40:11.571Z,66.20
2018-04-28T06:42:40.090Z,66.00
2018-04-28T06:45:08.599Z,65.70
2018-04-28T06:47:37.145Z,64.10
2018-04-28T06:50:05.669Z,63.90
2018-04-28T06:52:34.942Z,62.50
2018-04-28T06:55:03.448Z,61.90
2018-04-28T06:57:31.961Z,61.90
2018-04-28T07:00:00.461Z,62.00
2018-04-28T07:02:28.978Z,61.50
2018-04-28T07:04:57.484Z,61.70
2018-04-28T07:07:26.851Z,62.90
2018-04-28T07:09:55.356Z,62.60
2018-04-28T07:12:23.931Z,62.60
2018-04-28T07:14:52.434Z,61.80
2018-04-28T07:17:21.707Z,62.40
2018-04-28T07:19:50.241Z,62.10
2018-04-28T07:22:26.318Z,62.50
2018-04-28T07:24:54.825Z,61.80
2018-04-28T07:27:23.385Z,62.10
2018-04-28T07:29:51.926Z,62.20
2018-04-28T07:32:21.196Z,61.70
2018-04-28T07:34:49.730Z,61.00
2018-04-28T07:37:18.238Z,60.90
2018-04-28T07:39:46.745Z,61.90
2018-04-28T07:42:15.277Z,61.60
2018-04-28T07:44:43.793Z,60.60
2018-04-28T07:47:12.317Z,61.30
2018-04-28T07:49:40.821Z,61.30
2018-04-28T07:52:10.089Z,61.70
2018-04-28T07:54:38.594Z,61.80
2018-04-28T07:57:07.870Z,60.70
2018-04-28T07:59:36.405Z,60.70
2018-04-28T08:02:04.934Z,60.50
2018-04-28T08:04:33.450Z,60.30
2018-04-28T08:07:02.747Z,60.10
2018-04-28T08:09:31.300Z,60.00
2018-04-28T08:11:59.818Z,58.40
2018-04-28T08:14:28.365Z,58.50
2018-04-28T08:16:56.930Z,57.50
2018-04-28T08:19:25.437Z,59.20
2018-04-28T08:21:53.942Z,58.90
2018-04-28T08:24:23.205Z,57.20
2018-04-28T08:26:51.749Z,57.30
2018-04-28T08:29:20.319Z,56.20
2018-04-28T08:31:48.898Z,56.50
2018-04-28T08:34:17.406Z,56.80
2018-04-28T08:36:45.982Z,57.10
2018-04-28T08:39:14.455Z,56.40
2018-04-28T08:41:42.959Z,56.60
2018-04-28T08:44:11.457Z,56.50
2018-04-28T08:46:39.963Z,58.10
2018-04-28T08:49:08.510Z,57.30
2018-04-28T08:51:37.014Z,57.30
2018-04-28T08:54:05.518Z,57.60
2018-04-28T08:56:34.019Z,57.20
2018-04-28T08:59:02.522Z,56.80
2018-04-28T09:01:31.022Z,57.50
2018-04-28T09:03:59.530Z,57.20
2018-04-28T09:06:28.034Z,55.80
2018-04-28T09:08:57.302Z,56.80
2018-04-28T09:11:25.801Z,56.80
2018-04-28T09:13:54.300Z,54.30
2018-04-28T09:16:23.569Z,54.60
2018-04-28T09:18:52.079Z,54.50
2018-04-28T09:21:21.354Z,54.60
2018-04-28T09:23:49.853Z,54.60
2018-04-28T09:26:18.429Z,54.60
2018-04-28T09:28:46.900Z,54.20
2018-04-28T09:31:15.402Z,53.50
2018-04-28T09:33:44.668Z,54.40
2018-04-28T09:36:13.170Z,54.40
2018-04-28T09:38:41.673Z,54.80
2018-04-28T09:41:10.982Z,53.30
2018-04-28T09:43:40.254Z,54.60
2018-04-28T09:46:08.763Z,54.50
2018-04-28T09:48:38.034Z,53.40
2018-04-28T09:51:06.538Z,53.40
2018-04-28T09:53:35.869Z,54.50
2018-04-28T09:56:05.124Z,54.50
2018-04-28T09:58:33.637Z,54.50
2018-04-28T10:01:02.142Z,53.10
2018-04-28T10:03:30.653Z,52.40
2018-04-28T10:05:59.219Z,52.70
2018-04-28T10:08:27.696Z,53.30
2018-04-28T10:10:56.210Z,53.00
2018-04-28T10:13:24.714Z,54.60
2018-04-28T10:15:53.992Z,53.50
2018-04-28T10:18:22.497Z,53.50
2018-04-28T10:20:51.771Z,54.30
2018-04-28T10:23:20.277Z,54.30
2018-04-28T10:25:49.551Z,53.00
2018-04-28T10:28:18.061Z,52.90
2018-04-28T10:30:47.387Z,52.80
2018-04-28T10:33:16.646Z,53.90
2018-04-28T10:35:45.149Z,53.90
2018-04-28T10:38:14.422Z,51.20
2018-04-28T10:40:42.925Z,51.20
2018-04-28T10:43:12.192Z,51.10
2018-04-28T10:45:40.693Z,51.00
2018-04-28T10:48:09.212Z,52.20
2018-04-28T10:50:37.716Z,50.20
2018-04-28T10:53:06.217Z,50.70
2018-04-28T10:55:34.713Z,49.30
2018-04-28T10:58:03.212Z,49.20
2018-04-28T11:00:31.709Z,49.70
2018-04-28T11:03:00.977Z,50.30
2018-04-28T11:05:29.489Z,50.20
2018-04-28T11:07:58.021Z,49.60
2018-04-28T11:10:26.524Z,49.00
2018-04-28T11:12:55.030Z,49.10
2018-04-28T11:15:24.298Z,48.10
2018-04-28T11:17:52.798Z,48.00
2018-04-28T11:20:21.297Z,48.50
2018-04-28T11:22:49.801Z,47.00
2018-04-28T11:25:18.341Z,47.00
2018-04-28T11:27:46.840Z,47.60
2018-04-28T11:30:16.113Z,45.80
2018-04-28T11:32:44.617Z,45.70
2018-04-28T11:35:13.881Z,47.70
2018-04-28T11:37:42.378Z,47.50
2018-04-28T11:40:10.891Z,47.30
2018-04-28T11:42:39.394Z,47.90
2018-04-28T11:45:07.893Z,47.30
2018-04-28T11:47:36.429Z,47.10
2018-04-28T11:50:05.692Z,48.70
2018-04-28T11:52:34.221Z,48.80
2018-04-28T11:55:03.567Z,47.10
2018-04-28T11:57:32.155Z,47.10
2018-04-28T12:00:00.943Z,47.90
2018-04-28T12:02:29.500Z,48.20
2018-04-28T12:04:58.033Z,47.60
2018-04-28T12:07:26.554Z,47.90
2018-04-28T12:09:55.091Z,46.90
2018-04-28T12:12:23.678Z,47.90
2018-04-28T12:14:52.267Z,47.90
2018-04-28T12:17:20.829Z,48.20
2018-04-28T12:19:49.395Z,48.30
2018-04-28T12:22:17.914Z,48.30
2018-04-28T12:24:46.479Z,48.80
2018-04-28T12:27:15.026Z,48.00
2018-04-28T12:29:43.583Z,48.60
2018-04-28T12:32:12.916Z,47.70
2018-04-28T12:34:41.459Z,47.70
2018-04-28T12:37:10.750Z,47.60
2018-04-28T12:39:39.282Z,47.70
2018-04-28T12:42:07.861Z,48.30
2018-04-28T12:44:36.405Z,48.30
2018-04-28T12:47:05.759Z,48.90
2018-04-28T12:49:34.301Z,48.70
2018-04-28T12:52:03.603Z,47.80
2018-04-28T12:54:32.918Z,47.60
2018-04-28T12:57:01.453Z,47.70
2018-04-28T12:59:29.995Z,47.90
2018-04-28T13:01:58.548Z,47.50
2018-04-28T13:04:27.146Z,47.80
2018-04-28T13:06:55.704Z,46.00
2018-04-28T13:09:24.255Z,46.90
2018-04-28T13:11:53.587Z,46.00
2018-04-28T13:14:22.133Z,45.50
2018-04-28T13:16:50.698Z,44.80
2018-04-28T13:19:19.266Z,45.40
2018-04-28T13:21:48.562Z,44.20
2018-04-28T13:24:17.117Z,44.10
2018-04-28T13:26:45.733Z,43.70
2018-04-28T13:29:15.085Z,45.20
2018-04-28T13:31:43.651Z,45.20
2018-04-28T13:34:12.192Z,45.10
2018-04-28T13:36:41.546Z,43.50
2018-04-28T13:39:10.885Z,42.90
2018-04-28T13:41:39.423Z,42.90
2018-04-28T13:44:07.971Z,43.40
2018-04-28T13:46:36.521Z,43.80
2018-04-28T13:49:05.069Z,44.40
2018-04-28T13:51:33.609Z,44.50
2018-04-28T13:54:02.915Z,44.50
2018-04-28T13:56:32.229Z,44.40
2018-04-28T13:59:00.802Z,44.40
2018-04-28T14:01:29.422Z,43.50
2018-04-28T14:03:57.974Z,42.40
2018-04-28T14:06:26.528Z,43.60
2018-04-28T14:08:55.111Z,44.00
2018-04-28T14:11:23.695Z,42.70
2018-04-28T14:13:52.218Z,41.80
2018-04-28T14:16:20.773Z,43.50
2018-04-28T14:18:50.085Z,43.30
2018-04-28T14:21:18.618Z,42.70
2018-04-28T14:23:47.136Z,42.10
2018-04-28T14:26:15.675Z,43.00
2018-04-28T14:28:44.219Z,42.40
2018-04-28T14:31:13.570Z,41.10
2018-04-28T14:33:42.139Z,41.00
2018-04-28T14:36:10.662Z,43.40
2018-04-28T14:38:39.209Z,43.50
2018-04-28T14:41:07.737Z,43.70
2018-04-28T14:46:11.709Z,43.70
2018-04-28T14:48:40.261Z,44.50
2018-04-28T14:51:08.845Z,42.70
2018-04-28T14:53:38.177Z,44.50
2018-04-28T14:56:06.717Z,44.50
2018-04-28T14:58:35.251Z,44.90
2018-04-28T15:01:03.818Z,43.30
2018-04-28T15:03:32.373Z,43.90
2018-04-28T15:06:01.704Z,43.90
2018-04-28T15:08:30.235Z,43.90
2018-04-28T15:10:58.772Z,43.10
2018-04-28T15:13:27.330Z,43.50
2018-04-28T15:15:55.905Z,42.70
2018-04-28T15:18:25.229Z,44.60
2018-04-28T15:20:53.814Z,44.50
2018-04-28T15:23:22.373Z,43.50
2018-04-28T15:25:51.685Z,42.40
2018-04-28T15:28:21.057Z,43.80
2018-04-28T15:30:49.594Z,43.70
2018-04-28T15:33:18.139Z,42.20
2018-04-28T15:35:47.472Z,44.40
2018-04-28T15:38:16.022Z,44.30
2018-04-28T15:40:45.343Z,44.20
2018-04-28T15:43:13.931Z,44.10
2018-04-28T15:45:42.496Z,44.30
2018-04-28T15:48:11.828Z,45.20
2018-04-28T15:50:40.377Z,45.20
2018-04-28T15:53:09.708Z,44.90
2018-04-28T15:55:38.263Z,44.70
2018-04-28T15:58:07.590Z,44.10
2018-04-28T16:00:36.138Z,44.00
2018-04-28T16:03:04.678Z,44.50
2018-04-28T16:05:33.217Z,43.10
2018-04-28T16:08:02.531Z,41.90
2018-04-28T16:10:31.083Z,41.80
2018-04-28T16:12:59.641Z,40.30
2018-04-28T16:15:28.191Z,41.50
2018-04-28T16:17:56.741Z,41.90
2018-04-28T16:20:25.295Z,41.80
2018-04-28T16:22:53.847Z,42.10
2018-04-28T16:25:22.374Z,43.70
2018-04-28T16:27:50.897Z,42.30
2018-04-28T16:30:20.219Z,43.30
2018-04-28T16:32:48.773Z,43.20
2018-04-28T16:35:17.314Z,42.50
2018-04-28T16:37:45.902Z,44.50
2018-04-28T16:40:14.468Z,44.20
2018-04-28T16:42:43.027Z,43.00
2018-04-28T16:45:11.565Z,43.20
2018-04-28T16:47:40.116Z,44.10
2018-04-28T16:50:08.668Z,43.60
2018-04-28T16:52:37.217Z,43.50
2018-04-28T16:55:05.768Z,44.10
2018-04-28T16:57:34.323Z,43.30
2018-04-28T17:00:02.867Z,43.70
2018-04-28T17:02:31.414Z,44.20
2018-04-28T17:04:59.973Z,43.60
2018-04-28T17:07:28.527Z,44.30
2018-04-28T17:09:57.077Z,44.20
2018-04-28T17:12:25.578Z,44.80
2018-04-28T17:14:54.122Z,45.10
2018-04-28T17:17:40.617Z,45.00
2018-04-28T17:20:09.154Z,44.30
2018-04-28T17:22:37.660Z,45.00
2018-04-28T17:25:06.928Z,45.90
2018-04-28T17:27:35.427Z,45.90
2018-04-28T17:30:04.701Z,45.60
2018-04-28T17:32:33.214Z,45.40
2018-04-28T17:35:02.488Z,47.30
2018-04-28T17:37:31.033Z,47.30
2018-04-28T17:39:59.527Z,45.20
2018-04-28T17:42:28.093Z,45.90
2018-04-28T17:44:56.607Z,46.50
2018-04-28T17:47:25.124Z,46.10
2018-04-28T17:49:54.416Z,46.90
2018-04-28T17:52:22.950Z,47.40
2018-04-28T17:54:51.452Z,48.70
2018-04-28T17:57:19.958Z,47.10
2018-04-28T17:59:48.469Z,46.90
2018-04-28T18:02:17.735Z,47.70
2018-04-28T18:04:46.274Z,47.50
2018-04-28T18:07:14.811Z,48.00
2018-04-28T18:09:43.319Z,47.90
2018-04-28T18:12:12.578Z,49.20
2018-04-28T18:14:41.132Z,49.20
2018-04-28T18:17:09.613Z,48.10
2018-04-28T18:19:38.891Z,49.70
2018-04-28T18:22:07.389Z,50.30
2018-04-28T18:24:35.890Z,49.80
2018-04-28T18:27:04.463Z,50.00
2018-04-28T18:29:33.077Z,50.20
2018-04-28T18:32:01.686Z,58.80
2018-04-28T18:34:31.018Z,63.40
2018-04-28T18:36:59.591Z,62.50
2018-04-28T18:39:28.190Z,60.50
2018-04-28T18:41:56.735Z,57.60
2018-04-28T18:44:26.046Z,56.90
2018-04-28T18:46:55.367Z,56.80
2018-04-28T18:49:23.966Z,56.80
2018-04-28T18:51:52.557Z,56.90
2018-04-28T18:54:21.073Z,56.80
2018-04-28T18:56:49.615Z,56.40
2018-04-28T18:59:18.183Z,56.40
2018-04-28T19:01:46.734Z,56.70
2018-04-28T19:04:16.050Z,56.50
2018-04-28T19:06:44.672Z,56.50
2018-04-28T19:09:13.184Z,56.50
2018-04-28T19:11:41.745Z,56.60
2018-04-28T19:14:10.303Z,56.00
2018-04-28T19:16:38.847Z,56.00
2018-04-28T19:19:07.417Z,56.40
2018-04-28T19:21:35.962Z,56.40
2018-04-28T19:24:04.502Z,56.50
2018-04-28T19:26:33.832Z,56.90
2018-04-28T19:29:02.431Z,56.80
2018-04-28T19:31:30.978Z,56.80
2018-04-28T19:34:00.282Z,56.80
2018-04-28T19:36:28.844Z,56.80
2018-04-28T19:38:57.390Z,57.50
2018-04-28T19:41:25.934Z,57.50
2018-04-28T19:43:55.277Z,56.90
2018-04-28T19:46:23.818Z,56.90
2018-04-28T19:48:53.118Z,57.90
2018-04-28T19:51:22.451Z,58.10
2018-04-28T19:53:51.006Z,58.10
2018-04-28T19:56:20.345Z,64.20
2018-04-28T19:58:49.659Z,64.90
2018-04-28T20:01:18.255Z,64.70
2018-04-28T20:03:46.801Z,63.20
2018-04-28T20:06:15.346Z,62.70
2018-04-28T20:08:43.915Z,61.60
2018-04-28T20:11:12.539Z,61.20
2018-04-28T20:13:41.078Z,61.50
2018-04-28T20:16:09.633Z,62.30
2018-04-28T20:18:38.199Z,61.20
2018-04-28T20:21:06.746Z,61.60
2018-04-28T20:23:53.942Z,62.00
2018-04-28T20:26:22.490Z,62.00
2018-04-28T20:28:51.039Z,62.00
2018-04-28T20:31:20.359Z,63.10
2018-04-28T20:33:48.907Z,63.10
2018-04-28T20:36:17.457Z,62.70
2018-04-28T20:38:46.050Z,62.60
2018-04-28T20:41:14.594Z,62.70
2018-04-28T20:43:43.154Z,62.50
2018-04-28T20:46:12.487Z,62.60
2018-04-28T20:48:41.035Z,62.60
2018-04-28T20:51:10.343Z,62.30
2018-04-28T20:53:39.662Z,62.10
2018-04-28T20:56:08.202Z,62.10
2018-04-28T20:58:36.785Z,61.90
2018-04-28T21:01:05.317Z,62.00
2018-04-28T21:03:33.858Z,62.30
2018-04-28T21:06:02.403Z,62.00
2018-04-28T21:08:30.943Z,61.80
2018-04-28T21:11:00.299Z,61.70
2018-04-28T21:13:28.863Z,61.50
2018-04-28T21:15:57.397Z,60.90
2018-04-28T21:18:25.960Z,62.00
2018-04-28T21:20:54.515Z,62.30
2018-04-28T21:23:23.066Z,63.30
2018-04-28T21:25:52.374Z,66.80
2018-04-28T21:28:20.912Z,66.80
2018-04-28T21:30:49.470Z,72.40
2018-04-28T21:33:18.021Z,99.90
2018-04-28T21:35:46.585Z,99.90
2018-04-28T21:38:15.911Z,99.90
2018-04-28T21:40:44.466Z,99.90
2018-04-28T21:43:13.794Z,99.90
2018-04-28T21:45:42.337Z,99.90
2018-04-28T21:48:10.923Z,99.90
2018-04-28T21:50:39.506Z,99.90
2018-04-28T21:53:08.100Z,99.90
2018-04-28T21:55:37.436Z,99.90
2018-04-28T21:58:06.017Z,99.90
2018-04-28T22:00:34.598Z,99.90
2018-04-28T22:03:03.165Z,99.90
2018-04-28T22:05:31.725Z,99.90
2018-04-28T22:08:00.318Z,99.90
2018-04-28T22:10:29.642Z,99.90
2018-04-28T22:12:58.206Z,99.90
2018-04-28T22:15:26.766Z,99.90
2018-04-28T22:17:55.310Z,99.90
2018-04-28T22:20:23.862Z,99.90
2018-04-28T22:22:53.191Z,99.90
2018-04-28T22:25:21.754Z,99.90
2018-04-28T22:27:50.317Z,99.90
2018-04-28T22:30:18.890Z,99.90
2018-04-28T22:32:47.460Z,99.90
2018-04-28T22:35:16.010Z,99.90
2018-04-28T22:37:44.578Z,99.90
2018-04-28T22:40:13.133Z,99.90
2018-04-28T22:42:41.686Z,86.90
2018-04-28T22:45:10.266Z,76.40
2018-04-28T22:47:38.832Z,74.60
2018-04-28T22:50:07.371Z,75.20
2018-04-28T22:52:35.954Z,73.90
2018-04-28T22:55:04.574Z,73.90
2018-04-28T22:57:33.125Z,73.90
2018-04-28T23:00:02.443Z,74.80
2018-04-28T23:02:31.005Z,74.00
2018-04-28T23:05:00.350Z,72.40
2018-04-28T23:07:28.869Z,72.90
2018-04-28T23:09:57.425Z,73.50
2018-04-28T23:12:25.991Z,73.60
2018-04-28T23:14:54.555Z,72.60
2018-04-28T23:17:23.126Z,73.80
2018-04-28T23:19:52.480Z,74.20
2018-04-28T23:22:21.052Z,74.00
2018-04-28T23:24:49.583Z,73.70
2018-04-28T23:27:18.126Z,73.20
2018-04-28T23:29:46.649Z,72.20
2018-04-28T23:32:15.197Z,72.30
2018-04-28T23:34:43.737Z,72.20
2018-04-28T23:37:13.066Z,72.40
2018-04-28T23:39:41.628Z,72.40
2018-04-28T23:42:10.192Z,72.70
2018-04-28T23:44:38.745Z,72.20
2018-04-28T23:47:07.281Z,72.30
2018-04-28T23:49:35.822Z,72.40
2018-04-28T23:52:05.191Z,71.80
2018-04-28T23:54:33.731Z,71.80
2018-04-28T23:57:03.063Z,72.40
2018-04-28T23:59:31.610Z,72.30
